createdAt,value
2023-01-04T00:01:54.745Z,56.69
2023-01-04T00:05:01.452Z,56.84
2023-01-04T00:08:07.980Z,56.90
2023-01-04T00:11:18.231Z,56.70
2023-01-04T00:14:24.044Z,56.24
2023-01-04T00:17:33.418Z,56.46
2023-01-04T00:20:39.297Z,55.65
2023-01-04T00:23:49.204Z,56.23
2023-01-04T00:26:59.162Z,56.50
2023-01-04T00:34:02.384Z,57.58
2023-01-04T00:37:09.183Z,59.08
2023-01-04T00:40:15.915Z,58.34
2023-01-04T00:43:22.587Z,56.82
2023-01-04T00:46:39.238Z,57.78
2023-01-04T00:49:48.516Z,57.26
2023-01-04T00:52:54.337Z,56.89
2023-01-04T00:56:05.056Z,57.31
2023-01-04T00:59:11.207Z,57.27
2023-01-04T01:02:17.948Z,57.60
2023-01-04T01:05:26.753Z,57.36
2023-01-04T01:08:33.741Z,56.97
2023-01-04T01:11:40.401Z,57.84
2023-01-04T01:14:47.105Z,58.46
2023-01-04T01:17:53.239Z,58.50
2023-01-04T01:21:02.749Z,58.06
2023-01-04T01:24:10.220Z,57.58
2023-01-04T01:27:35.990Z,57.59
2023-01-04T01:30:45.670Z,57.56
2023-01-04T01:33:55.880Z,57.28
2023-01-04T01:37:05.031Z,57.04
2023-01-04T01:40:14.307Z,56.81
2023-01-04T01:43:22.465Z,57.30
2023-01-04T01:46:41.646Z,57.13
2023-01-04T01:49:55.806Z,58.18
2023-01-04T01:53:11.564Z,58.20
2023-01-04T02:44:20.626Z,61.62
2023-01-04T02:47:46.194Z,61.69
2023-01-04T02:51:01.126Z,61.46
2023-01-04T02:54:15.285Z,61.71
2023-01-04T02:57:46.150Z,61.66
2023-01-04T03:01:29.008Z,61.54
2023-01-04T03:05:10.106Z,61.46
2023-01-04T03:08:32.621Z,61.56
2023-01-04T03:12:00.858Z,61.14
2023-01-04T03:15:17.650Z,60.83
2023-01-04T03:18:32.262Z,60.80
2023-01-04T03:21:45.639Z,60.90
2023-01-04T03:25:03.848Z,59.77
2023-01-04T03:28:28.906Z,58.71
2023-01-04T03:31:56.181Z,58.04
2023-01-04T03:39:13.789Z,57.17
2023-01-04T03:42:44.863Z,57.34
2023-01-04T03:46:13.194Z,58.10
2023-01-04T03:49:34.431Z,57.94
2023-01-04T03:52:47.663Z,58.14
2023-01-04T03:56:01.889Z,58.66
2023-01-04T03:59:08.879Z,58.93
2023-01-04T04:02:19.307Z,57.94
2023-01-04T04:05:40.267Z,60.26
2023-01-04T04:12:32.364Z,65.90
2023-01-04T04:15:40.069Z,66.39
2023-01-04T04:18:48.242Z,66.68
2023-01-04T04:21:56.575Z,66.64
2023-01-04T04:25:02.449Z,66.79
2023-01-04T04:28:11.651Z,66.77
2023-01-04T04:31:17.945Z,66.75
2023-01-04T04:34:25.046Z,66.59
2023-01-04T04:37:34.383Z,66.90
2023-01-04T04:40:54.772Z,67.07
2023-01-04T04:44:03.876Z,67.27
2023-01-04T04:47:10.608Z,67.59
2023-01-04T04:50:16.611Z,67.51
2023-01-04T04:53:23.268Z,67.89
2023-01-04T04:56:29.131Z,67.77
2023-01-04T04:59:39.168Z,67.81
2023-01-04T05:02:45.107Z,68.03
2023-01-04T05:05:51.838Z,68.09
2023-01-04T05:08:58.140Z,68.23
2023-01-04T05:12:17.047Z,68.03
2023-01-04T05:15:25.580Z,67.08
2023-01-04T05:18:32.218Z,66.92
2023-01-04T05:21:38.306Z,66.03
2023-01-04T05:24:45.013Z,65.63
2023-01-04T05:27:50.989Z,65.42
2023-01-04T05:31:00.241Z,65.19
2023-01-04T05:34:06.590Z,64.42
2023-01-04T05:37:13.438Z,64.58
2023-01-04T05:40:19.860Z,64.01
2023-01-04T05:43:28.164Z,63.42
2023-01-04T05:46:37.086Z,63.57
2023-01-04T05:49:47.887Z,63.37
2023-01-04T05:52:57.608Z,63.28
2023-01-04T05:56:05.329Z,63.28
2023-01-04T05:59:17.920Z,62.82
2023-01-04T06:02:37.223Z,62.83
2023-01-04T06:05:52.595Z,62.86
2023-01-04T06:09:04.337Z,62.39
2023-01-04T06:12:27.794Z,62.00
2023-01-04T06:15:41.040Z,61.87
2023-01-04T06:18:50.871Z,62.15
2023-01-04T06:22:02.288Z,62.58
2023-01-04T06:25:10.532Z,62.09
2023-01-04T06:28:25.545Z,62.52
2023-01-04T06:31:37.039Z,62.52
2023-01-04T06:34:49.591Z,62.12
2023-01-04T06:37:57.110Z,62.22
2023-01-04T06:41:05.276Z,62.27
2023-01-04T06:44:17.770Z,62.15
2023-01-04T06:47:27.913Z,62.35
2023-01-04T06:50:47.152Z,62.28
2023-01-04T06:53:55.716Z,62.40
2023-01-04T06:57:03.034Z,62.63
2023-01-04T07:00:13.432Z,63.22
2023-01-04T07:03:19.557Z,63.50
2023-01-04T07:06:33.928Z,63.61
2023-01-04T07:09:41.463Z,63.28
2023-01-04T07:12:48.679Z,63.53
2023-01-04T07:15:55.762Z,63.78
2023-01-04T07:19:02.549Z,63.57
2023-01-04T07:22:11.203Z,63.75
2023-01-04T07:25:17.837Z,63.74
2023-01-04T07:28:35.922Z,63.53
2023-01-04T07:31:42.476Z,62.93
2023-01-04T07:34:48.276Z,62.45
2023-01-04T07:37:59.003Z,62.45
2023-01-04T07:41:05.455Z,61.51
2023-01-04T07:44:14.473Z,61.49
2023-01-04T07:47:20.284Z,60.04
2023-01-04T07:50:26.919Z,60.14
2023-01-04T07:53:36.684Z,58.40
2023-01-04T07:56:43.536Z,57.42
2023-01-04T07:59:49.720Z,57.66
2023-01-04T08:02:56.450Z,55.16
2023-01-04T08:06:06.139Z,54.66
2023-01-04T08:09:15.871Z,54.42
2023-01-04T08:12:21.690Z,53.13
2023-01-04T08:15:28.354Z,52.87
2023-01-04T08:18:34.596Z,53.57
2023-01-04T08:21:42.618Z,54.37
2023-01-04T08:24:51.220Z,54.73
2023-01-04T08:27:57.798Z,55.23
2023-01-04T08:31:10.727Z,55.61
2023-01-04T08:34:17.254Z,56.81
2023-01-04T08:37:23.215Z,57.41
2023-01-04T08:40:58.189Z,57.67
2023-01-04T08:43:58.364Z,58.24
2023-01-04T08:47:08.013Z,58.92
2023-01-04T08:50:16.924Z,59.12
2023-01-04T08:53:23.619Z,59.36
2023-01-04T08:56:32.467Z,59.17
2023-01-04T08:59:39.415Z,59.70
2023-01-04T09:02:46.118Z,59.66
2023-01-04T09:05:52.792Z,59.62
2023-01-04T09:09:00.935Z,59.25
2023-01-04T09:12:10.218Z,59.13
2023-01-04T09:15:16.918Z,58.81
2023-01-04T09:18:32.457Z,58.96
2023-01-04T09:21:38.986Z,58.64
2023-01-04T09:24:45.739Z,58.68
2023-01-04T09:27:56.571Z,58.96
2023-01-04T09:31:09.113Z,58.60
2023-01-04T09:34:17.673Z,58.51
2023-01-04T09:37:24.728Z,58.43
2023-01-04T09:40:46.090Z,58.75
2023-01-04T09:43:57.961Z,58.56
2023-01-04T09:47:14.788Z,58.65
2023-01-04T09:50:28.558Z,58.32
2023-01-04T09:53:46.058Z,58.15
2023-01-04T09:57:01.163Z,58.09
2023-01-04T10:00:24.345Z,57.55
2023-01-04T10:03:36.448Z,57.71
2023-01-04T10:06:43.971Z,57.61
2023-01-04T10:09:50.868Z,57.58
2023-01-04T10:13:19.975Z,57.52
2023-01-04T10:17:14.230Z,57.23
2023-01-04T10:24:47.171Z,56.87
2023-01-04T10:28:17.117Z,56.85
2023-01-04T10:31:39.808Z,55.76
2023-01-04T10:34:50.930Z,56.00
2023-01-04T10:38:04.343Z,55.74
2023-01-04T10:41:27.055Z,56.61
2023-01-04T10:44:55.963Z,56.77
2023-01-04T10:48:19.068Z,56.71
2023-01-04T10:51:41.500Z,56.42
2023-01-04T10:54:56.661Z,55.82
2023-01-04T10:58:12.393Z,54.86
2023-01-04T11:01:32.364Z,54.57
2023-01-04T11:04:52.137Z,52.94
2023-01-04T11:08:09.819Z,52.04
2023-01-04T11:11:27.765Z,51.43
2023-01-04T11:14:37.438Z,51.16
2023-01-04T11:17:46.924Z,51.44
2023-01-04T11:20:56.884Z,51.76
2023-01-04T11:24:31.065Z,52.00
2023-01-04T11:27:47.762Z,52.06
2023-01-04T11:31:04.941Z,51.51
2023-01-04T11:34:10.837Z,51.73
2023-01-04T11:37:45.243Z,51.23
2023-01-04T11:41:05.838Z,51.44
2023-01-04T11:44:23.101Z,51.82
2023-01-04T11:47:32.940Z,52.30
2023-01-04T11:50:44.377Z,51.30
2023-01-04T11:54:02.859Z,51.14
2023-01-04T11:57:21.594Z,51.17
2023-01-04T12:00:28.516Z,51.17
2023-01-04T12:03:40.248Z,51.00
2023-01-04T12:06:55.177Z,50.95
2023-01-04T12:10:24.857Z,50.84
2023-01-04T12:13:32.459Z,50.62
2023-01-04T12:16:56.837Z,50.05
2023-01-04T12:20:19.602Z,50.46
2023-01-04T12:23:27.343Z,50.25
2023-01-04T12:26:36.233Z,50.57
2023-01-04T12:29:57.581Z,51.26
2023-01-04T12:33:23.543Z,52.34
2023-01-04T12:37:04.959Z,52.77
2023-01-04T12:40:56.659Z,52.73
2023-01-04T12:44:43.435Z,52.86
2023-01-04T12:48:07.189Z,53.06
2023-01-04T12:51:34.200Z,52.97
2023-01-04T12:54:50.667Z,52.83
2023-01-04T12:57:59.107Z,52.76
2023-01-04T13:01:29.547Z,53.17
2023-01-04T13:04:45.196Z,53.33
2023-01-04T13:07:57.013Z,53.50
2023-01-04T13:11:08.053Z,53.89
2023-01-04T13:14:29.162Z,53.59
2023-01-04T13:17:43.353Z,53.47
2023-01-04T13:20:49.637Z,53.40
2023-01-04T13:24:01.365Z,53.51
2023-01-04T13:27:11.161Z,53.29
2023-01-04T13:30:34.561Z,53.23
2023-01-04T13:33:43.160Z,53.31
2023-01-04T13:36:59.383Z,53.23
2023-01-04T13:40:27.019Z,53.72
2023-01-04T13:44:06.046Z,53.99
2023-01-04T13:47:13.748Z,53.97
2023-01-04T13:50:35.989Z,54.13
2023-01-04T13:53:42.013Z,54.40
2023-01-04T13:56:55.178Z,54.23
2023-01-04T14:00:01.512Z,54.49
2023-01-04T14:03:39.554Z,54.55
2023-01-04T14:06:51.645Z,54.31
2023-01-04T14:10:03.739Z,54.46
2023-01-04T14:13:10.284Z,54.61
2023-01-04T14:16:18.849Z,54.73
2023-01-04T14:19:45.058Z,54.94
2023-01-04T14:22:59.495Z,54.78
2023-01-04T14:26:05.662Z,54.48
2023-01-04T14:29:25.813Z,54.72
2023-01-04T14:32:31.702Z,55.08
2023-01-04T14:35:41.949Z,55.13
2023-01-04T14:39:12.801Z,55.42
2023-01-04T14:42:30.251Z,55.46
2023-01-04T14:45:36.111Z,55.85
2023-01-04T14:48:42.792Z,55.89
2023-01-04T14:51:52.804Z,56.21
2023-01-04T14:55:05.040Z,56.58
2023-01-04T14:58:10.891Z,56.65
2023-01-04T15:01:17.626Z,57.65
2023-01-04T15:04:24.322Z,58.21
2023-01-04T15:07:39.867Z,60.09
2023-01-04T15:10:54.603Z,60.27
2023-01-04T15:14:04.545Z,61.88
2023-01-04T15:17:10.632Z,62.76
2023-01-04T15:20:17.729Z,62.45
2023-01-04T15:23:23.545Z,64.28
2023-01-04T15:26:33.352Z,66.40
2023-01-04T15:29:39.371Z,66.41
2023-01-04T15:32:46.006Z,67.61
2023-01-04T15:36:01.358Z,68.61
2023-01-04T15:39:08.135Z,69.41
2023-01-04T15:42:29.029Z,70.36
2023-01-04T15:45:42.431Z,71.52
2023-01-04T15:48:48.362Z,71.30
2023-01-04T15:51:55.982Z,72.28
2023-01-04T15:55:01.795Z,72.42
2023-01-04T15:58:30.855Z,72.69
2023-01-04T16:01:36.838Z,72.38
2023-01-04T16:04:46.028Z,72.53
2023-01-04T16:07:55.333Z,72.38
2023-01-04T16:11:01.939Z,72.19
2023-01-04T16:14:12.829Z,71.31
2023-01-04T16:17:21.195Z,70.14
2023-01-04T16:20:27.786Z,70.32
2023-01-04T16:23:35.638Z,70.10
2023-01-04T16:26:41.609Z,70.00
2023-01-04T16:29:54.782Z,68.89
2023-01-04T16:33:00.547Z,68.82
2023-01-04T16:36:10.746Z,69.19
2023-01-04T16:39:17.029Z,68.96
2023-01-04T16:42:24.845Z,68.25
2023-01-04T16:45:33.386Z,68.47
2023-01-04T16:48:39.994Z,68.62
2023-01-04T16:51:50.001Z,68.75
2023-01-04T16:54:56.592Z,68.60
2023-01-04T16:58:02.487Z,68.58
2023-01-04T17:01:15.946Z,68.40
2023-01-04T17:04:22.706Z,68.40
2023-01-04T17:07:33.227Z,68.33
2023-01-04T17:10:40.945Z,67.98
2023-01-04T17:13:47.703Z,67.29
2023-01-04T17:16:57.614Z,67.30
2023-01-04T17:20:06.498Z,66.99
2023-01-04T17:23:13.083Z,66.29
2023-01-04T17:26:24.175Z,65.62
2023-01-04T17:29:30.322Z,65.75
2023-01-04T17:32:39.812Z,65.65
2023-01-04T17:35:46.055Z,64.93
2023-01-04T17:38:53.299Z,65.00
2023-01-04T17:41:59.394Z,64.90
2023-01-04T17:45:09.278Z,64.58
2023-01-04T17:48:18.961Z,64.17
2023-01-04T17:51:28.019Z,64.45
2023-01-04T17:54:34.075Z,63.85
2023-01-04T18:01:12.884Z,63.79
2023-01-04T18:04:22.106Z,63.43
2023-01-04T18:07:28.638Z,63.41
2023-01-04T18:10:48.843Z,63.65
2023-01-04T18:14:05.842Z,64.21
2023-01-04T18:17:17.961Z,64.03
2023-01-04T18:20:35.197Z,63.80
2023-01-04T18:23:55.391Z,63.55
2023-01-04T18:27:22.721Z,63.65
2023-01-04T18:30:31.139Z,63.42
2023-01-04T18:33:36.958Z,63.29
2023-01-04T18:36:46.806Z,62.81
2023-01-04T18:39:53.113Z,63.00
2023-01-04T18:42:59.931Z,62.63
2023-01-04T18:46:10.887Z,62.53
2023-01-04T18:49:17.816Z,62.40
2023-01-04T18:52:26.199Z,62.11
2023-01-04T18:55:32.818Z,62.09
2023-01-04T18:58:40.167Z,61.97
2023-01-04T19:01:47.107Z,61.64
2023-01-04T19:04:57.515Z,61.85
2023-01-04T19:08:07.280Z,61.75
2023-01-04T19:11:13.961Z,61.65
2023-01-04T19:14:21.439Z,61.71
2023-01-04T19:17:27.891Z,61.69
2023-01-04T19:20:34.758Z,61.50
2023-01-04T19:23:43.622Z,61.63
2023-01-04T19:26:50.368Z,61.48
2023-01-04T19:29:57.206Z,61.65
2023-01-04T19:33:03.989Z,61.69
2023-01-04T19:36:12.963Z,61.72
2023-01-04T19:39:22.426Z,61.81
2023-01-04T19:42:29.033Z,61.83
2023-01-04T19:45:42.003Z,61.59
2023-01-04T19:48:48.584Z,61.40
2023-01-04T19:51:57.733Z,61.46
2023-01-04T19:55:08.910Z,61.53
2023-01-04T19:58:15.941Z,61.56
2023-01-04T20:01:25.369Z,61.65
2023-01-04T20:04:32.120Z,61.37
2023-01-04T20:07:37.927Z,61.49
2023-01-04T20:10:47.385Z,61.49
2023-01-04T20:13:53.376Z,61.55
2023-01-04T20:17:00.707Z,61.61
2023-01-04T20:20:07.112Z,61.60
2023-01-04T20:23:15.043Z,61.63
2023-01-04T20:26:23.686Z,61.90
2023-01-04T20:29:30.707Z,61.89
2023-01-04T20:32:39.493Z,62.04
2023-01-04T20:35:47.968Z,61.91
2023-01-04T20:38:54.253Z,61.96
2023-01-04T20:42:16.126Z,61.98
2023-01-04T20:45:22.277Z,62.05
2023-01-04T20:48:29.291Z,62.19
2023-01-04T20:51:35.361Z,62.20
2023-01-04T20:54:44.936Z,62.43
2023-01-04T20:57:53.414Z,62.12
2023-01-04T21:01:00.281Z,62.38
2023-01-04T21:04:06.128Z,62.34
2023-01-04T21:07:12.763Z,62.24
2023-01-04T21:10:18.788Z,62.62
2023-01-04T21:13:28.744Z,62.87
2023-01-04T21:16:34.667Z,62.64
2023-01-04T21:19:41.353Z,63.36
2023-01-04T21:22:47.466Z,62.85
2023-01-04T21:25:57.503Z,63.23
2023-01-04T21:29:06.369Z,62.97
2023-01-04T21:32:13.243Z,63.34
2023-01-04T21:35:19.446Z,63.40
2023-01-04T21:38:26.769Z,63.38
2023-01-04T21:41:33.840Z,63.06
2023-01-04T21:44:43.688Z,63.16
2023-01-04T21:47:51.990Z,63.12
2023-01-04T21:51:02.830Z,62.66
2023-01-04T21:54:09.286Z,63.29
2023-01-04T21:57:16.820Z,63.10
2023-01-04T22:00:25.852Z,63.73
2023-01-04T22:03:33.306Z,63.98
2023-01-04T22:06:44.324Z,64.51
2023-01-04T22:09:57.252Z,64.33
2023-01-04T22:13:03.961Z,64.81
2023-01-04T22:16:19.727Z,64.77
2023-01-04T22:19:26.234Z,65.13
2023-01-04T22:22:33.453Z,64.71
2023-01-04T22:25:40.368Z,64.80
2023-01-04T22:28:47.124Z,64.84
2023-01-04T22:31:55.574Z,65.01
2023-01-04T22:35:02.321Z,65.22
2023-01-04T22:38:08.249Z,65.54
2023-01-04T22:41:19.144Z,65.35
2023-01-04T22:44:25.073Z,65.52
2023-01-04T22:47:36.067Z,65.49
2023-01-04T22:50:42.132Z,65.73
2023-01-04T22:53:51.729Z,66.14
2023-01-04T22:56:57.768Z,66.19
2023-01-04T23:00:04.554Z,66.68
2023-01-04T23:03:13.153Z,67.09
2023-01-04T23:06:19.932Z,66.85
2023-01-04T23:09:26.001Z,66.68
2023-01-04T23:12:33.680Z,66.66
2023-01-04T23:15:41.223Z,66.60
2023-01-04T23:18:50.944Z,66.59
2023-01-04T23:21:56.749Z,66.40
2023-01-04T23:25:03.478Z,66.80
2023-01-04T23:28:09.265Z,66.50
2023-01-04T23:31:19.102Z,66.58
2023-01-04T23:34:28.958Z,66.34
2023-01-04T23:37:36.181Z,66.21
2023-01-04T23:40:41.961Z,66.00
2023-01-04T23:43:48.898Z,66.07
2023-01-04T23:46:57.591Z,65.94
2023-01-04T23:50:07.998Z,66.26
2023-01-04T23:53:13.720Z,66.49
2023-01-04T23:56:20.381Z,66.07
2023-01-04T23:59:27.521Z,66.51
